Forest Home, Alabama
Current Conditions -  °F | °C
As of 6:56 AM on Wednesday 26 Nov 2014 (Local Time) from KPRN Reporting Station
Clear Clear  
Wind Chill: 33°   Ceiling: Unl
Heat Index: 38°   Visibility: 10mi
Dew Point: 29°   Wind: 6mph
Humidity: 70%   Direction: 310°NW
Pressure: 30.17"   Gusts: NA
Location:  31.86°N, 86.84°W
Report Text: KPRN 261256Z AUTO 31005KT 10SM CLR 03/M02 A3017 RMK AO2 SLP216 T00331017
Loading
Personal Weather Stations






























Interactive Weather Map New forecast layout! Learn more

10-Day Weather Forecast

Advertisements
Track Severe Weather on mobile